createdAt,value
2022-09-05T00:00:41.690Z,71.06
2022-09-05T00:01:41.694Z,71.94
2022-09-05T00:02:49.231Z,74.26
2022-09-05T00:03:42.734Z,73.15
2022-09-05T00:04:41.661Z,72.68
2022-09-05T00:05:54.027Z,73.79
2022-09-05T00:06:42.654Z,73.90
2022-09-05T00:07:58.391Z,72.78
2022-09-05T00:08:42.650Z,72.28
2022-09-05T00:09:41.659Z,72.58
2022-09-05T00:11:15.384Z,74.30
2022-09-05T00:11:44.052Z,73.08
2022-09-05T00:12:42.610Z,73.69
2022-09-05T00:13:41.786Z,73.08
2022-09-05T00:15:17.576Z,75.21
2022-09-05T00:15:42.631Z,76.62
2022-09-05T00:16:41.575Z,75.81
2022-09-05T00:18:31.102Z,75.92
2022-09-05T00:23:17.608Z,75.61
2022-09-05T00:24:18.693Z,75.31
2022-09-05T00:24:22.209Z,76.72
2022-09-05T00:24:25.767Z,76.42
2022-09-05T00:24:32.019Z,76.42
2022-09-05T00:24:37.159Z,76.62
2022-09-05T00:25:02.314Z,75.92
2022-09-05T00:25:43.526Z,76.72
2022-09-05T00:26:50.182Z,76.42
2022-09-05T00:27:42.497Z,76.93
2022-09-05T00:28:41.492Z,77.03
2022-09-05T00:30:48.642Z,76.32
2022-09-05T00:31:06.871Z,76.42
2022-09-05T00:31:53.377Z,75.92
2022-09-05T00:32:42.577Z,76.62
2022-09-05T00:33:41.453Z,74.80
2022-09-05T00:34:48.100Z,76.22
2022-09-05T00:35:42.440Z,76.56
2022-09-05T00:36:41.428Z,76.52
2022-09-05T00:37:41.425Z,76.12
2022-09-05T00:38:41.411Z,77.53
2022-09-05T00:39:41.459Z,77.33
2022-09-05T00:40:42.403Z,77.64
2022-09-05T00:41:41.392Z,77.53
2022-09-05T00:42:41.384Z,77.80
2022-09-05T00:43:41.393Z,77.29
2022-09-05T00:44:41.365Z,77.50
2022-09-05T00:45:41.364Z,77.29
2022-09-05T00:46:41.410Z,76.99
2022-09-05T00:47:41.343Z,77.19
2022-09-05T00:48:42.339Z,76.69
2022-09-05T00:49:41.331Z,76.39
2022-09-05T00:50:41.330Z,76.59
2022-09-05T00:51:41.309Z,76.28
2022-09-05T00:52:41.312Z,75.88
2022-09-05T00:53:41.296Z,76.15
2022-09-05T00:54:41.844Z,76.35
2022-09-05T00:55:41.299Z,75.37
2022-09-05T00:56:41.279Z,73.35
2022-09-05T00:57:41.272Z,73.46
2022-09-05T00:58:41.264Z,73.66
2022-09-05T00:59:41.269Z,73.35
2022-09-05T01:00:41.264Z,73.46
2022-09-05T01:01:41.301Z,73.35
2022-09-05T01:02:51.349Z,73.66
2022-09-05T01:03:43.228Z,73.69
2022-09-05T01:04:41.233Z,74.50
2022-09-05T01:05:41.237Z,74.30
2022-09-05T01:06:41.209Z,74.13
2022-09-05T01:07:46.653Z,74.33
2022-09-05T01:08:42.211Z,74.60
2022-09-05T01:09:41.189Z,75.75
2022-09-05T01:10:41.197Z,76.26
2022-09-05T01:11:41.180Z,76.66
2022-09-05T01:12:41.159Z,76.05
2022-09-05T01:13:42.154Z,76.35
2022-09-05T01:14:41.148Z,76.05
2022-09-05T01:15:41.154Z,76.15
2022-09-05T01:16:41.148Z,74.23
2022-09-05T01:17:41.128Z,74.03
2022-09-05T01:18:41.123Z,74.67
2022-09-05T01:19:41.111Z,74.27
2022-09-05T01:20:41.108Z,74.16
2022-09-05T01:21:41.103Z,74.67
2022-09-05T01:22:41.096Z,75.99
2022-09-05T01:23:41.083Z,76.19
2022-09-05T01:24:41.076Z,76.12
2022-09-05T01:25:41.072Z,75.48
2022-09-05T01:26:41.078Z,75.38
2022-09-05T01:28:25.236Z,75.48
2022-09-05T01:29:17.315Z,75.07
2022-09-05T01:29:42.044Z,75.11
2022-09-05T01:30:41.134Z,74.40
2022-09-05T01:31:41.075Z,75.07
2022-09-05T01:32:41.037Z,74.30
2022-09-05T01:33:41.007Z,74.40
2022-09-05T01:34:41.004Z,73.86
2022-09-05T01:35:40.993Z,73.36
2022-09-05T01:36:41.995Z,73.90
2022-09-05T01:37:40.983Z,74.00
2022-09-05T01:38:40.967Z,73.69
2022-09-05T01:40:11.999Z,73.80
2022-09-05T01:40:42.091Z,73.80
2022-09-05T01:41:40.959Z,73.59
2022-09-05T01:42:40.950Z,72.17
2022-09-05T01:43:40.936Z,72.17
2022-09-05T01:44:40.935Z,73.69
2022-09-05T01:45:40.936Z,73.93
2022-09-05T01:46:40.950Z,74.64
2022-09-05T01:47:40.939Z,74.54
2022-09-05T01:48:44.472Z,74.44
2022-09-05T01:49:41.892Z,74.95
2022-09-05T01:50:40.883Z,75.49
2022-09-05T01:51:40.881Z,75.28
2022-09-05T01:52:45.043Z,74.54
2022-09-05T01:53:41.865Z,74.27
2022-09-05T01:54:40.861Z,75.99
2022-09-05T01:56:04.652Z,75.99
2022-09-05T01:56:41.856Z,76.29
2022-09-05T01:57:40.859Z,75.59
2022-09-05T01:58:40.833Z,74.68
2022-09-05T01:59:40.823Z,74.48
2022-09-05T02:00:41.816Z,76.20
2022-09-05T02:01:41.860Z,75.49
2022-09-05T02:02:40.977Z,75.69
2022-09-05T02:03:41.795Z,76.80
2022-09-05T02:04:40.787Z,75.79
2022-09-05T02:05:48.793Z,76.94
2022-09-05T02:06:43.945Z,75.93
2022-09-05T02:07:40.783Z,76.43
2022-09-05T02:08:41.741Z,76.70
2022-09-05T02:09:40.752Z,76.64
2022-09-05T02:10:40.753Z,75.89
2022-09-05T02:11:40.727Z,76.54
2022-09-05T02:12:40.731Z,77.45
2022-09-05T02:13:40.738Z,76.54
2022-09-05T02:14:40.709Z,76.23
2022-09-05T02:15:40.745Z,76.74
2022-09-05T02:16:40.699Z,75.73
2022-09-05T02:17:50.512Z,76.23
2022-09-05T02:18:41.737Z,75.86
2022-09-05T02:19:40.682Z,76.23
2022-09-05T02:20:40.676Z,76.13
2022-09-05T02:21:55.809Z,76.54
2022-09-05T02:22:41.663Z,76.37
2022-09-05T02:23:42.380Z,77.59
2022-09-05T02:24:40.653Z,77.79
2022-09-05T02:26:01.799Z,79.51
2022-09-05T02:26:41.637Z,79.88
2022-09-05T02:28:05.014Z,78.97
2022-09-05T02:28:41.633Z,78.80
2022-09-05T02:29:40.620Z,78.16
2022-09-05T02:30:47.433Z,77.79
2022-09-05T02:31:41.636Z,77.75
2022-09-05T02:32:40.609Z,77.75
2022-09-05T02:33:40.600Z,77.79
2022-09-05T02:34:40.588Z,77.79
2022-09-05T02:35:40.577Z,77.75
2022-09-05T02:36:40.577Z,79.21
2022-09-05T02:41:40.495Z,79.61
2022-09-05T02:42:05.922Z,80.63
2022-09-05T02:45:00.554Z,79.47
2022-09-05T02:45:10.683Z,81.64
2022-09-05T02:45:13.248Z,81.34
2022-09-05T02:45:14.351Z,81.85
2022-09-05T02:45:16.412Z,80.02
2022-09-05T02:45:21.282Z,81.44
2022-09-05T02:45:41.559Z,81.34
2022-09-05T02:46:40.627Z,81.13
2022-09-05T02:47:40.496Z,81.95
2022-09-05T02:48:40.490Z,82.45
2022-09-05T02:50:54.477Z,82.66
2022-09-05T02:57:24.773Z,82.66
2022-09-05T02:57:28.797Z,83.17
2022-09-05T02:57:29.510Z,82.96
2022-09-05T02:57:34.572Z,83.57
2022-09-05T02:57:38.562Z,83.06
2022-09-05T02:57:40.619Z,83.33
2022-09-05T02:57:42.871Z,82.25
2022-09-05T02:58:06.016Z,82.76
2022-09-05T02:59:06.133Z,81.74
2022-09-05T02:59:42.422Z,80.02
2022-09-05T03:00:40.424Z,79.61
2022-09-05T03:01:40.461Z,80.32
2022-09-05T03:02:40.426Z,80.73
2022-09-05T03:03:40.385Z,81.34
2022-09-05T03:04:40.386Z,80.32
2022-09-05T03:05:40.387Z,81.64
2022-09-05T03:06:40.378Z,81.54
2022-09-05T03:07:40.366Z,79.75
2022-09-05T03:08:40.354Z,79.11
2022-09-05T03:09:40.343Z,78.80
2022-09-05T03:10:54.330Z,78.09
2022-09-05T03:11:41.356Z,79.25
2022-09-05T03:12:40.347Z,79.35
2022-09-05T03:13:48.810Z,79.35
2022-09-05T03:14:41.323Z,78.33
2022-09-05T03:15:40.310Z,78.13
2022-09-05T03:16:46.924Z,77.83
2022-09-05T03:17:41.318Z,77.72
2022-09-05T03:18:40.290Z,77.83
2022-09-05T03:19:46.703Z,77.52
2022-09-05T03:20:41.282Z,78.53
2022-09-05T03:21:40.293Z,79.45
2022-09-05T03:22:40.269Z,78.23
2022-09-05T03:23:40.262Z,78.27
2022-09-05T03:24:40.258Z,79.35
2022-09-05T03:25:40.248Z,79.65
2022-09-05T03:26:40.355Z,80.40
2022-09-05T03:27:40.234Z,80.40
2022-09-05T03:28:40.222Z,80.46
2022-09-05T03:29:40.214Z,80.10
2022-09-05T03:30:40.258Z,81.62
2022-09-05T03:31:40.222Z,82.43
2022-09-05T03:32:42.005Z,81.27
2022-09-05T03:33:40.206Z,81.31
2022-09-05T03:34:40.202Z,80.77
2022-09-05T03:35:40.187Z,80.40
2022-09-05T03:36:40.181Z,80.26
2022-09-05T03:37:40.189Z,80.19
2022-09-05T03:38:40.171Z,79.38
2022-09-05T03:39:40.246Z,80.19
2022-09-05T03:40:40.159Z,80.10
2022-09-05T03:41:40.926Z,81.11
2022-09-05T03:42:40.158Z,80.71
2022-09-05T03:43:40.138Z,80.71
2022-09-05T03:44:40.123Z,81.01
2022-09-05T03:45:40.118Z,80.57
2022-09-05T03:46:40.122Z,80.30
2022-09-05T03:47:40.106Z,81.72
2022-09-05T03:48:40.114Z,81.31
2022-09-05T03:51:58.912Z,81.31
2022-09-05T03:57:06.952Z,81.72
2022-09-05T03:57:11.220Z,79.99
2022-09-05T03:57:13.383Z,81.92
2022-09-05T03:57:15.325Z,81.82
2022-09-05T03:57:15.325Z,80.40
2022-09-05T03:57:15.713Z,80.87
2022-09-05T03:57:25.241Z,81.21
2022-09-05T03:57:42.605Z,79.79
2022-09-05T03:58:57.393Z,79.90
2022-09-05T03:59:42.031Z,79.59
2022-09-05T04:00:40.019Z,79.28
2022-09-05T04:04:12.896Z,78.88
2022-09-05T04:07:13.351Z,78.67
2022-09-05T04:08:08.675Z,78.78
2022-09-05T04:08:10.455Z,78.57
2022-09-05T04:08:15.212Z,78.37
2022-09-05T04:08:16.375Z,79.42
2022-09-05T04:08:26.185Z,79.32
2022-09-05T04:08:42.983Z,79.12
2022-09-05T04:09:51.015Z,78.71
2022-09-05T04:10:42.059Z,78.41
2022-09-05T04:11:39.962Z,78.41
2022-09-05T04:12:39.966Z,78.00
2022-09-05T04:13:39.947Z,78.41
2022-09-05T04:14:39.934Z,77.90
2022-09-05T04:15:39.925Z,78.20
2022-09-05T04:16:39.941Z,77.70
2022-09-05T04:17:39.915Z,77.90
2022-09-05T04:18:39.906Z,78.20
2022-09-05T04:19:39.901Z,79.52
2022-09-05T04:20:40.569Z,79.02
2022-09-05T04:21:40.893Z,79.63
2022-09-05T04:22:39.886Z,79.63
2022-09-05T04:23:39.891Z,80.74
2022-09-05T04:24:40.930Z,80.44
2022-09-05T04:25:39.869Z,80.33
2022-09-05T04:26:39.862Z,80.24
2022-09-05T04:27:39.862Z,79.46
2022-09-05T04:28:41.348Z,79.52
2022-09-05T04:29:39.846Z,79.22
2022-09-05T04:30:40.591Z,79.66
2022-09-05T04:31:40.870Z,80.94
2022-09-05T04:32:39.831Z,80.94
2022-09-05T04:33:39.846Z,80.74
2022-09-05T04:34:39.818Z,80.88
2022-09-05T04:35:39.801Z,80.03
2022-09-05T04:36:39.814Z,80.84
2022-09-05T04:37:48.244Z,81.39
2022-09-05T04:38:40.801Z,80.78
2022-09-05T04:39:40.807Z,80.24
2022-09-05T04:40:39.769Z,80.78
2022-09-05T04:41:40.321Z,80.98
2022-09-05T04:42:39.767Z,80.68
2022-09-05T04:43:39.749Z,80.68
2022-09-05T04:44:39.758Z,81.90
2022-09-05T04:45:39.764Z,82.51
2022-09-05T04:46:48.484Z,83.73
2022-09-05T04:47:40.737Z,84.13
2022-09-05T04:48:39.729Z,84.44
2022-09-05T04:49:39.741Z,84.84
2022-09-05T04:50:39.783Z,85.05
2022-09-05T04:51:39.709Z,85.41
2022-09-05T04:52:39.706Z,84.54
2022-09-05T04:53:39.698Z,83.32
2022-09-05T04:54:39.710Z,82.57
2022-09-05T04:55:39.681Z,81.86
2022-09-05T04:56:39.699Z,81.35
2022-09-05T04:57:39.679Z,81.49
2022-09-05T04:59:55.277Z,81.19
2022-09-05T05:03:14.289Z,80.78
2022-09-05T05:06:02.690Z,80.68
2022-09-05T05:06:09.240Z,81.96
2022-09-05T05:06:13.103Z,81.66
2022-09-05T05:06:14.278Z,80.78
2022-09-05T05:06:16.467Z,80.84
2022-09-05T05:06:24.901Z,81.86
2022-09-05T05:06:46.485Z,82.98
2022-09-05T05:07:41.698Z,83.18
2022-09-05T05:08:39.902Z,81.66
2022-09-05T05:09:39.603Z,80.13
2022-09-05T05:16:13.525Z,80.03
2022-09-05T05:16:22.222Z,79.93
2022-09-05T05:17:56.226Z,80.10
2022-09-05T05:18:00.261Z,79.12
2022-09-05T05:18:01.553Z,79.63
2022-09-05T05:18:10.897Z,80.24
2022-09-05T05:18:14.533Z,79.99
2022-09-05T05:18:15.970Z,80.44
2022-09-05T05:18:55.032Z,80.40
2022-09-05T05:19:41.600Z,80.19
2022-09-05T05:20:43.735Z,80.13
2022-09-05T05:21:39.521Z,79.90
2022-09-05T05:22:39.537Z,79.42
2022-09-05T05:23:39.513Z,78.81
2022-09-05T05:24:39.506Z,78.57
2022-09-05T05:25:39.501Z,78.57
2022-09-05T05:26:39.502Z,78.47
2022-09-05T05:27:39.499Z,79.08
2022-09-05T05:28:39.477Z,79.90
2022-09-05T05:29:39.465Z,79.38
2022-09-05T05:30:39.457Z,79.49
2022-09-05T05:31:39.495Z,79.38
2022-09-05T05:32:46.005Z,79.65
2022-09-05T05:33:40.453Z,78.23
2022-09-05T05:34:39.448Z,77.83
2022-09-05T05:35:48.031Z,78.23
2022-09-05T05:36:40.420Z,78.23
2022-09-05T05:37:39.432Z,78.33
2022-09-05T05:38:39.416Z,78.74
2022-09-05T05:39:39.434Z,79.35
2022-09-05T05:40:50.769Z,79.51
2022-09-05T05:41:40.404Z,79.11
2022-09-05T05:42:39.409Z,79.65
2022-09-05T05:43:42.826Z,78.50
2022-09-05T05:44:41.799Z,78.80
2022-09-05T05:45:39.471Z,78.91
2022-09-05T05:46:39.356Z,78.56
2022-09-05T05:47:39.368Z,78.40
2022-09-05T05:48:39.352Z,78.26
2022-09-05T05:49:39.335Z,78.06
2022-09-05T05:50:39.343Z,77.86
2022-09-05T05:52:01.448Z,77.51
2022-09-05T05:52:40.328Z,77.34
2022-09-05T05:53:43.550Z,77.61
2022-09-05T05:54:40.311Z,78.12
2022-09-05T05:55:51.982Z,77.72
2022-09-05T05:56:40.299Z,78.49
2022-09-05T05:57:39.312Z,77.92
2022-09-05T05:58:39.280Z,78.08
2022-09-05T05:59:39.280Z,77.68
2022-09-05T06:00:39.275Z,77.48
2022-09-05T06:01:39.434Z,77.58
2022-09-05T06:02:39.391Z,77.64
2022-09-05T06:03:39.362Z,78.05
2022-09-05T06:04:44.936Z,77.61
2022-09-05T06:05:40.236Z,77.64
2022-09-05T06:06:39.233Z,77.40
2022-09-05T06:08:23.853Z,77.91
2022-09-05T06:13:48.810Z,77.10
2022-09-05T06:14:27.501Z,77.10
2022-09-05T06:14:52.061Z,76.29
2022-09-05T06:14:55.646Z,76.76
2022-09-05T06:14:58.260Z,76.46
2022-09-05T06:15:03.766Z,76.66
2022-09-05T06:15:05.954Z,76.72
2022-09-05T06:15:40.168Z,76.52
2022-09-05T06:16:39.236Z,76.42
2022-09-05T06:17:39.145Z,76.48
2022-09-05T06:18:40.365Z,76.59
2022-09-05T06:20:40.580Z,76.39
2022-09-05T06:22:09.155Z,76.04
2022-09-05T06:22:11.745Z,76.04
2022-09-05T06:22:40.100Z,75.81
2022-09-05T06:23:40.209Z,75.71
2022-09-05T06:24:39.107Z,75.00
2022-09-05T06:25:39.087Z,75.31
2022-09-05T06:26:39.083Z,75.00
2022-09-05T06:27:43.950Z,74.29
2022-09-05T06:28:40.075Z,74.66
2022-09-05T06:29:39.773Z,74.26
2022-09-05T06:30:39.060Z,74.26
2022-09-05T06:31:39.047Z,74.12
2022-09-05T06:32:39.038Z,73.92
2022-09-05T06:33:39.031Z,73.92
2022-09-05T06:34:39.019Z,74.02
2022-09-05T06:35:39.027Z,73.48
2022-09-05T06:36:39.018Z,73.62
2022-09-05T06:37:38.999Z,73.58
2022-09-05T06:38:38.991Z,73.18
2022-09-05T06:39:39.031Z,73.48
2022-09-05T06:40:38.999Z,73.14
2022-09-05T06:41:38.967Z,73.65
2022-09-05T06:42:42.397Z,74.99
2022-09-05T06:43:38.958Z,75.18
2022-09-05T06:44:38.963Z,73.50
2022-09-05T06:45:38.931Z,71.47
2022-09-05T06:46:54.541Z,68.85
2022-09-05T06:47:40.972Z,69.99
2022-09-05T06:48:46.020Z,68.26
2022-09-05T06:49:42.807Z,66.99
2022-09-05T06:51:07.420Z,66.99
2022-09-05T06:51:44.164Z,67.38
2022-09-05T06:52:39.924Z,67.52
2022-09-05T06:53:38.882Z,67.35
2022-09-05T06:54:41.417Z,68.15
2022-09-05T06:55:39.883Z,68.65
2022-09-05T06:56:38.868Z,69.06
2022-09-05T06:57:40.054Z,69.26
2022-09-05T06:58:39.844Z,69.06
2022-09-05T06:59:38.838Z,68.15
2022-09-05T07:00:38.848Z,69.73
2022-09-05T07:01:59.658Z,69.42
2022-09-05T07:02:59.782Z,69.02
2022-09-05T07:03:39.813Z,68.52
2022-09-05T07:05:23.482Z,67.82
2022-09-05T07:05:45.081Z,67.11
2022-09-05T07:07:01.307Z,67.42
2022-09-05T07:07:45.647Z,67.92
2022-09-05T07:08:40.784Z,67.49
2022-09-05T07:09:38.771Z,66.99
2022-09-05T07:10:39.478Z,67.99
2022-09-05T07:11:38.759Z,67.05
2022-09-05T07:12:38.779Z,66.95
2022-09-05T07:13:44.662Z,67.15
2022-09-05T07:14:40.738Z,66.82
2022-09-05T07:15:38.730Z,66.72
2022-09-05T07:16:39.219Z,66.22
2022-09-05T07:18:06.272Z,66.39
2022-09-05T07:18:40.727Z,65.99
2022-09-05T07:19:38.711Z,65.66
2022-09-05T07:21:17.370Z,64.65
2022-09-05T07:21:39.699Z,65.66
2022-09-05T07:22:48.451Z,65.52
2022-09-05T07:24:05.685Z,64.25
2022-09-05T07:24:54.513Z,65.45
2022-09-05T07:25:39.671Z,64.75
2022-09-05T07:26:53.530Z,65.02
2022-09-05T07:27:49.818Z,65.09
2022-09-05T07:28:39.659Z,63.63
2022-09-05T07:29:38.643Z,63.57
2022-09-05T07:30:38.647Z,62.15
2022-09-05T07:31:38.710Z,62.26
2022-09-05T07:32:39.635Z,61.27
2022-09-05T07:33:38.652Z,60.23
2022-09-05T07:34:38.610Z,57.07
2022-09-05T07:35:42.319Z,51.94
2022-09-05T07:36:38.599Z,52.19
2022-09-05T07:37:38.590Z,50.46
2022-09-05T07:38:50.279Z,50.93
2022-09-05T07:39:40.645Z,49.30
2022-09-05T07:40:38.597Z,48.86
2022-09-05T07:41:38.570Z,47.63
2022-09-05T07:42:38.559Z,46.50
2022-09-05T07:43:38.559Z,43.71
2022-09-05T07:44:38.555Z,44.06
2022-09-05T07:45:39.141Z,44.73
2022-09-05T07:46:39.531Z,42.52
2022-09-05T07:47:38.527Z,39.84
2022-09-05T07:48:38.539Z,41.76
2022-09-05T07:49:45.572Z,39.76
2022-09-05T07:53:46.405Z,40.01
2022-09-05T07:56:47.244Z,37.45
2022-09-05T07:56:49.385Z,37.04
2022-09-05T07:56:52.923Z,36.88
2022-09-05T07:57:03.159Z,37.02
2022-09-05T07:57:08.067Z,36.61
2022-09-05T07:57:13.175Z,35.34
2022-09-05T07:57:51.432Z,36.98
2022-09-05T07:58:39.459Z,35.60
2022-09-05T07:59:38.478Z,34.90
2022-09-05T08:00:38.459Z,34.03
2022-09-05T08:01:39.560Z,33.93
2022-09-05T08:02:40.924Z,33.83
2022-09-05T08:03:38.430Z,33.53
2022-09-05T08:04:38.473Z,33.70
2022-09-05T08:05:38.485Z,32.64
2022-09-05T08:07:11.933Z,32.81
2022-09-05T08:07:46.669Z,32.12
2022-09-05T08:08:39.399Z,31.44
2022-09-05T08:10:08.564Z,32.44
2022-09-05T08:11:24.253Z,32.81
2022-09-05T08:11:39.451Z,32.12
2022-09-05T08:12:44.991Z,30.84
2022-09-05T08:13:39.682Z,31.02
2022-09-05T08:14:45.330Z,30.71
2022-09-05T08:16:04.286Z,30.89
2022-09-05T08:16:39.368Z,30.86
2022-09-05T08:17:38.355Z,29.92
2022-09-05T08:18:38.338Z,30.21
2022-09-05T08:19:38.330Z,30.13
2022-09-05T08:20:38.355Z,30.52
2022-09-05T08:21:40.139Z,29.66
2022-09-05T08:22:39.309Z,30.15
2022-09-05T08:23:38.319Z,31.39
2022-09-05T08:24:38.295Z,30.41
2022-09-05T08:25:56.602Z,29.34
2022-09-05T08:26:39.290Z,29.43
2022-09-05T08:27:38.308Z,30.04
2022-09-05T08:28:39.124Z,30.92
2022-09-05T08:29:38.263Z,30.73
2022-09-05T08:30:38.262Z,31.60
2022-09-05T08:31:38.595Z,30.13
2022-09-05T08:32:38.246Z,31.29
2022-09-05T08:33:38.246Z,30.31
2022-09-05T08:34:44.207Z,30.58
2022-09-05T08:35:39.226Z,30.17
2022-09-05T08:36:38.226Z,29.28
2022-09-05T08:37:38.218Z,28.22
2022-09-05T08:38:40.905Z,28.89
2022-09-05T08:39:38.212Z,29.38
2022-09-05T08:40:38.199Z,29.85
2022-09-05T08:41:51.540Z,29.06
2022-09-05T08:42:39.187Z,28.87
2022-09-05T08:46:35.293Z,28.51
2022-09-05T08:46:41.707Z,29.55
2022-09-05T08:46:41.810Z,29.08
2022-09-05T08:46:49.332Z,27.61
2022-09-05T08:47:45.125Z,28.58
2022-09-05T08:48:39.146Z,27.82
2022-09-05T08:49:41.394Z,29.10
2022-09-05T08:50:40.149Z,29.12
2022-09-05T08:51:41.174Z,28.92
2022-09-05T08:52:39.158Z,29.12
2022-09-05T08:53:46.377Z,28.91
2022-09-05T08:54:39.128Z,29.20
2022-09-05T08:55:38.121Z,29.38
2022-09-05T08:56:38.114Z,29.27
2022-09-05T08:57:38.125Z,28.20
2022-09-05T08:58:38.111Z,28.41
2022-09-05T08:59:38.112Z,29.10
2022-09-05T09:00:39.124Z,28.92
2022-09-05T09:01:59.330Z,29.91
2022-09-05T09:02:47.619Z,29.71
2022-09-05T09:03:39.159Z,29.60
2022-09-05T09:05:01.157Z,28.81
2022-09-05T09:06:12.420Z,29.01
2022-09-05T09:06:39.049Z,29.67
2022-09-05T09:07:48.253Z,29.27
2022-09-05T09:08:39.061Z,28.29
2022-09-05T09:09:38.037Z,28.00
2022-09-05T09:10:38.034Z,28.29
2022-09-05T09:11:38.044Z,28.29
2022-09-05T09:12:38.033Z,27.40
2022-09-05T09:13:38.029Z,28.36
2022-09-05T09:14:38.013Z,27.09
2022-09-05T09:15:38.021Z,28.08
2022-09-05T09:16:38.022Z,28.26
2022-09-05T09:17:38.025Z,27.97
2022-09-05T09:18:38.038Z,27.39
2022-09-05T09:19:37.994Z,29.05
2022-09-05T09:20:37.989Z,28.25
2022-09-05T09:21:38.990Z,26.97
2022-09-05T09:22:37.993Z,27.05
2022-09-05T09:23:37.985Z,27.22
2022-09-05T09:24:37.977Z,27.72
2022-09-05T09:25:37.959Z,28.95
2022-09-05T09:26:37.993Z,27.98
2022-09-05T09:28:13.610Z,28.12
2022-09-05T09:28:49.574Z,29.80
2022-09-05T09:29:38.970Z,29.20
2022-09-05T09:30:37.925Z,29.28
2022-09-05T09:31:38.026Z,29.25
2022-09-05T09:32:37.930Z,27.98
2022-09-05T09:33:37.920Z,26.81
2022-09-05T09:34:39.574Z,27.50
2022-09-05T09:35:37.917Z,29.22
2022-09-05T09:36:37.909Z,29.61
2022-09-05T09:37:49.850Z,29.73
2022-09-05T09:38:38.918Z,29.83
2022-09-05T09:39:39.803Z,29.43
2022-09-05T09:40:37.892Z,28.91
2022-09-05T09:41:37.889Z,29.01
2022-09-05T09:42:37.874Z,29.10
2022-09-05T09:43:37.892Z,28.89
2022-09-05T09:44:37.929Z,28.09
2022-09-05T09:45:37.865Z,27.78
2022-09-05T09:46:39.402Z,27.38
2022-09-05T09:47:37.862Z,26.70
2022-09-05T09:48:37.860Z,28.36
2022-09-05T09:49:37.849Z,27.08
2022-09-05T09:50:37.901Z,26.57
2022-09-05T09:51:38.845Z,26.28
2022-09-05T09:52:37.834Z,25.79
2022-09-05T09:53:37.833Z,26.25
2022-09-05T09:54:37.829Z,25.47
2022-09-05T09:55:37.845Z,25.27
2022-09-05T09:56:37.801Z,25.54
2022-09-05T09:57:38.812Z,24.56
2022-09-05T09:58:37.812Z,24.38
2022-09-05T09:59:54.856Z,25.79
2022-09-05T10:00:38.806Z,25.56
2022-09-05T10:01:37.946Z,25.31
2022-09-05T10:06:57.694Z,26.06
2022-09-05T10:07:03.084Z,26.18
2022-09-05T10:10:35.025Z,25.26
2022-09-05T10:10:36.335Z,23.32
2022-09-05T10:10:47.867Z,23.88
2022-09-05T10:10:48.843Z,23.28
2022-09-05T10:10:53.065Z,24.75
2022-09-05T10:10:57.645Z,23.79
2022-09-05T10:10:57.645Z,24.90
2022-09-05T10:11:53.632Z,25.29
2022-09-05T10:12:39.753Z,25.18
2022-09-05T10:13:37.743Z,24.01
2022-09-05T10:14:49.621Z,24.86
2022-09-05T10:15:38.747Z,23.49
2022-09-05T10:16:37.747Z,22.52
2022-09-05T10:17:37.735Z,22.67
2022-09-05T10:18:37.728Z,24.65
2022-09-05T10:20:39.738Z,26.84
2022-09-05T10:21:37.707Z,26.33
2022-09-05T10:22:38.083Z,26.15
2022-09-05T10:23:37.703Z,26.93
2022-09-05T10:24:38.699Z,27.23
2022-09-05T10:25:37.699Z,26.84
2022-09-05T10:26:37.699Z,27.24
2022-09-05T10:27:37.686Z,26.57
2022-09-05T10:28:38.679Z,26.74
2022-09-05T10:29:38.780Z,29.12
2022-09-05T10:31:36.085Z,28.51
2022-09-05T10:34:42.399Z,27.83
2022-09-05T10:35:08.138Z,27.14
2022-09-05T10:35:08.943Z,27.53
2022-09-05T10:35:17.612Z,26.95
2022-09-05T10:35:38.744Z,25.98
2022-09-05T10:36:37.667Z,26.26
2022-09-05T10:37:37.652Z,26.25
2022-09-05T10:38:37.647Z,25.26
2022-09-05T10:39:37.680Z,26.54
2022-09-05T10:40:46.425Z,26.17
2022-09-05T10:41:38.643Z,26.95
2022-09-05T10:42:41.239Z,25.76
2022-09-05T10:43:38.625Z,25.03
2022-09-05T10:44:37.627Z,24.98
2022-09-05T10:45:38.875Z,23.31
2022-09-05T10:46:50.635Z,22.32
2022-09-05T10:47:39.616Z,22.72
2022-09-05T10:48:37.611Z,23.43
2022-09-05T10:49:37.603Z,23.65
2022-09-05T10:50:37.596Z,25.28
2022-09-05T10:51:37.757Z,23.43
2022-09-05T10:52:37.587Z,23.21
2022-09-05T10:53:39.346Z,23.15
2022-09-05T10:54:37.579Z,23.76
2022-09-05T10:55:37.567Z,23.59
2022-09-05T10:56:37.571Z,24.49
2022-09-05T10:57:37.571Z,25.82
2022-09-05T11:00:56.469Z,26.83
2022-09-05T11:02:19.045Z,28.53
2022-09-05T11:02:24.704Z,29.95
2022-09-05T11:02:29.997Z,29.98
2022-09-05T11:02:43.856Z,30.97
2022-09-05T11:03:39.646Z,32.56
2022-09-05T11:04:46.899Z,32.89
2022-09-05T11:05:38.651Z,32.61
2022-09-05T11:06:37.542Z,32.42
2022-09-05T11:07:37.523Z,29.78
2022-09-05T11:08:37.521Z,27.87
2022-09-05T11:09:37.518Z,28.36
2022-09-05T11:10:37.511Z,29.61
2022-09-05T11:11:37.506Z,30.26
2022-09-05T11:12:37.503Z,29.06
2022-09-05T11:13:37.498Z,29.79
2022-09-05T11:14:37.515Z,30.15
2022-09-05T11:15:37.584Z,30.58
2022-09-05T11:16:38.545Z,31.13
2022-09-05T11:17:37.483Z,30.49
2022-09-05T11:18:54.697Z,29.78
2022-09-05T11:19:38.483Z,29.35
2022-09-05T11:20:37.462Z,28.11
2022-09-05T11:21:37.471Z,26.04
2022-09-05T11:22:37.462Z,26.18
2022-09-05T11:23:37.456Z,27.57
2022-09-05T11:24:37.457Z,27.03
2022-09-05T11:25:40.362Z,25.62
2022-09-05T11:26:37.439Z,24.63
2022-09-05T11:27:37.438Z,24.23
2022-09-05T11:28:37.767Z,24.68
2022-09-05T11:29:38.559Z,24.43
2022-09-05T11:30:38.904Z,22.75
2022-09-05T11:34:04.175Z,22.24
2022-09-05T11:39:46.069Z,20.54
2022-09-05T11:39:50.204Z,19.25
2022-09-05T11:39:51.880Z,18.68
2022-09-05T11:39:52.169Z,19.46
2022-09-05T11:39:53.323Z,19.10
2022-09-05T11:39:54.592Z,21.53
2022-09-05T11:40:02.601Z,19.81
2022-09-05T11:40:03.622Z,18.32
2022-09-05T11:40:57.352Z,20.40
2022-09-05T11:41:39.424Z,20.64
2022-09-05T11:42:37.368Z,21.25
2022-09-05T11:43:37.358Z,20.98
2022-09-05T11:44:37.417Z,21.48
2022-09-05T11:45:37.370Z,21.01
2022-09-05T11:46:37.419Z,20.61
2022-09-05T11:47:44.072Z,21.81
2022-09-05T11:48:37.351Z,24.15
2022-09-05T11:49:37.339Z,27.66
2022-09-05T11:50:37.346Z,28.59
2022-09-05T11:51:37.519Z,28.81
2022-09-05T11:52:37.328Z,29.13
2022-09-05T11:53:37.322Z,29.93
2022-09-05T11:54:37.322Z,29.30
2022-09-05T11:55:37.319Z,28.59
2022-09-05T11:56:39.636Z,27.37
2022-09-05T11:57:38.327Z,26.97
2022-09-05T11:58:45.350Z,26.89
2022-09-05T11:59:38.294Z,27.73
2022-09-05T12:00:37.306Z,25.97
2022-09-05T12:01:43.047Z,26.37
2022-09-05T12:02:38.353Z,27.84
2022-09-05T12:03:57.632Z,27.37
2022-09-05T12:04:38.271Z,27.39
2022-09-05T12:05:50.306Z,28.00
2022-09-05T12:06:38.298Z,28.71
2022-09-05T12:07:38.322Z,28.42
2022-09-05T12:08:37.250Z,28.77
2022-09-05T12:09:37.245Z,27.61
2022-09-05T12:10:47.224Z,27.04
2022-09-05T12:11:38.234Z,23.98
2022-09-05T12:12:41.397Z,23.24
2022-09-05T12:13:39.242Z,22.44
2022-09-05T12:14:38.830Z,20.78
2022-09-05T12:15:37.264Z,21.26
2022-09-05T12:16:37.576Z,22.57
2022-09-05T12:17:37.210Z,23.19
2022-09-05T12:18:37.218Z,23.19
2022-09-05T12:19:37.208Z,22.92
2022-09-05T12:20:43.685Z,23.71
2022-09-05T12:21:39.187Z,23.53
2022-09-05T12:22:37.190Z,23.83
2022-09-05T12:24:11.539Z,25.04
2022-09-05T12:25:15.589Z,25.78
2022-09-05T12:27:38.929Z,27.18
2022-09-05T12:27:39.428Z,27.06
2022-09-05T12:27:46.154Z,27.39
2022-09-05T12:29:33.737Z,27.39
2022-09-05T12:31:00.516Z,27.86
2022-09-05T12:32:59.481Z,26.68
2022-09-05T12:34:43.997Z,27.06
2022-09-05T12:36:04.818Z,27.05
2022-09-05T12:36:11.386Z,26.42
2022-09-05T12:36:11.452Z,26.83
2022-09-05T12:40:05.098Z,26.40
2022-09-05T12:40:56.294Z,26.07
2022-09-05T12:41:00.932Z,24.88
2022-09-05T12:41:36.241Z,24.02
2022-09-05T12:41:41.893Z,27.48
2022-09-05T12:42:10.082Z,25.52
2022-09-05T12:42:10.953Z,25.42
2022-09-05T12:42:56.027Z,25.41
2022-09-05T12:44:39.437Z,23.83
2022-09-05T12:44:44.431Z,23.94
2022-09-05T12:45:38.325Z,24.33
2022-09-05T12:46:37.060Z,24.54
2022-09-05T12:47:37.049Z,24.24
2022-09-05T12:48:39.216Z,24.66
2022-09-05T12:49:37.055Z,24.27
2022-09-05T12:50:37.038Z,24.56
2022-09-05T12:51:45.402Z,25.36
2022-09-05T12:52:38.034Z,26.29
2022-09-05T12:53:37.022Z,27.19